Sawtelle Peak

Sawtelle summit stationLocated on Sawtelle Peak in the Centennials. Use the Sawtelle SNOdar or the nearest SNOTEL station for snow depth data: White Elephant. The data on this page is also available to view at dataGarrison.com.

 

Elevation
9885ft
Jump to table bottom
Date Time Temperature
deg F
RH, % Wind Speed Wind Gust Wind Direction Pressure Light
04/13/24 20:00 39.2 58 9 23 SW - 208 704.780 58
04/13/24 19:00 39.6 60 10 17 SW - 236 704.700 66,877
04/13/24 18:00 42.4 49 16 25 W - 264 705.200 224,510
04/13/24 17:00 41.5 58 18 30 W - 261 705.240 410,618
04/13/24 16:00 42.3 54 20 31 W - 267 705.180 583,506
04/13/24 15:00 41.5 58 19 33 W - 270 705.360 750,291
04/13/24 14:00 40.4 60 20 27 W - 279 705.360 896,737
04/13/24 13:00 39.5 60 22 31 W - 272 705.560 1,006,572
04/13/24 12:00 39.2 60 19 31 W - 271 705.260 1,091,999
04/13/24 11:00 39.3 58 12 24 W - 284 705.540 1,124,542
04/13/24 10:00 38.9 56 14 26 W - 279 705.060 1,100,134
04/13/24 9:00 38.1 56 14 23 W - 279 704.580 986,232
04/13/24 8:00 37.9 55 20 28 W - 271 704.340 795,039
04/13/24 7:00 36.4 54 24 32 W - 264 703.900 447,230
04/13/24 6:00 36.2 54 25 32 W - 268 703.540 5,206
04/13/24 5:00 37.5 58 28 35 W - 264 703.120 0
04/13/24 4:00 36.8 59 23 36 W - 253 703.060 0
04/13/24 3:00 39.0 55 20 29 W - 250 703.140 0
04/13/24 2:00 38.8 56 19 25 SW - 240 703.080 0
04/13/24 1:00 39.2 56 14 25 SW - 233 703.140 0
04/12/24 24:00 39.5 56 10 19 SW - 244 703.400 0
04/12/24 23:00 37.5 63 13 25 W - 277 703.600 0
04/12/24 22:00 33.1 83 8 25 S - 191 703.800 0
04/12/24 21:00 36.5 68 15 47 SW - 222 703.500 0
04/12/24 20:00 39.1 60 14 33 SE - 157 703.200 17
04/12/24 19:00 38.9 61 7 23 SE - 140 703.060 33,825
04/12/24 18:00 40.4 61 8 27 SW - 244 703.440 214,340
04/12/24 17:00 34.5 83 14 32 W - 256 704.160 154,338
04/12/24 16:00 38.6 62 15 38 W - 257 703.420 571,302
04/12/24 15:00 40.5 60 24 56 W - 257 703.740 937,417
04/12/24 14:00 35.0 74 28 47 W - 260 702.980 526,555
04/12/24 13:00 36.9 61 38 51 W - 263 702.820 1,006,572
04/12/24 12:00 35.9 62 34 52 W - 261 702.560 709,612
04/12/24 11:00 36.6 59 26 39 W - 265 702.980 1,018,776
04/12/24 10:00 35.5 60 19 32 W - 254 703.060 953,689
04/12/24 9:00 34.4 60 15 28 SW - 247 702.940 1,043,183
04/12/24 8:00 33.0 60 22 32 SW - 241 702.660 827,582
04/12/24 7:00 32.0 60 26 33 SW - 246 702.420 475,705
04/12/24 6:00 31.5 61 26 36 W - 256 701.880 4,539
04/12/24 5:00 31.7 61 29 41 W - 256 702.140 0
04/12/24 4:00 31.4 65 33 45 W - 258 702.280 0
04/12/24 3:00 31.6 68 33 46 W - 260 702.280 0
04/12/24 2:00 31.7 70 33 44 W - 263 702.620 0
04/12/24 1:00 30.7 72 31 43 W - 260 702.800 0
04/11/24 24:00 31.2 71 34 42 W - 258 702.740 0
04/11/24 23:00 31.6 67 34 42 W - 256 702.980 0
04/11/24 22:00 31.5 65 33 42 W - 253 703.160 0
04/11/24 21:00 31.3 63 32 39 W - 248 703.180 0
04/11/24 20:00 31.0 64 29 38 W - 248 703.400 31
04/11/24 19:00 31.1 61 24 33 W - 258 703.480 49,843